sensor_id;sensor_type;location;lat;lon;timestamp;pressure;altitude;pressure_sealevel;temperature;humidity
6899;BME280;3488;42.616;23.350;2024-03-08T00:00:58;93382.50;;;3.24;92.74
6899;BME280;3488;42.616;23.350;2024-03-08T00:03:24;93389.69;;;3.27;92.66
6899;BME280;3488;42.616;23.350;2024-03-08T00:05:49;93386.34;;;3.21;92.09
6899;BME280;3488;42.616;23.350;2024-03-08T00:08:15;93378.63;;;3.16;92.27
6899;BME280;3488;42.616;23.350;2024-03-08T00:10:40;93386.34;;;3.26;92.77
6899;BME280;3488;42.616;23.350;2024-03-08T00:13:06;93386.59;;;3.20;92.06
6899;BME280;3488;42.616;23.350;2024-03-08T00:15:31;93388.34;;;3.14;92.84
6899;BME280;3488;42.616;23.350;2024-03-08T00:17:57;93390.94;;;3.19;93.19
6899;BME280;3488;42.616;23.350;2024-03-08T00:20:23;93381.72;;;3.18;92.79
6899;BME280;3488;42.616;23.350;2024-03-08T00:22:49;93384.25;;;3.13;92.55
6899;BME280;3488;42.616;23.350;2024-03-08T00:25:14;93380.44;;;3.16;92.98
6899;BME280;3488;42.616;23.350;2024-03-08T00:27:40;93378.66;;;3.21;92.77
6899;BME280;3488;42.616;23.350;2024-03-08T00:30:09;93372.72;;;3.06;93.33
6899;BME280;3488;42.616;23.350;2024-03-08T00:32:36;93371.72;;;3.12;93.08
6899;BME280;3488;42.616;23.350;2024-03-08T00:35:02;93369.66;;;3.09;94.11
6899;BME280;3488;42.616;23.350;2024-03-08T00:37:27;93364.56;;;3.24;93.22
6899;BME280;3488;42.616;23.350;2024-03-08T00:39:53;93381.25;;;3.36;93.16
6899;BME280;3488;42.616;23.350;2024-03-08T00:42:19;93368.44;;;3.41;94.25
6899;BME280;3488;42.616;23.350;2024-03-08T00:44:46;93363.84;;;3.43;93.30
6899;BME280;3488;42.616;23.350;2024-03-08T00:47:11;93348.97;;;3.40;93.14
6899;BME280;3488;42.616;23.350;2024-03-08T00:49:37;93364.38;;;3.50;92.73
6899;BME280;3488;42.616;23.350;2024-03-08T00:52:06;93356.19;;;3.58;93.62
6899;BME280;3488;42.616;23.350;2024-03-08T00:54:32;93351.78;;;3.39;93.09
6899;BME280;3488;42.616;23.350;2024-03-08T00:56:58;93344.00;;;3.04;94.47
6899;BME280;3488;42.616;23.350;2024-03-08T00:59:23;93339.34;;;2.96;95.52
6899;BME280;3488;42.616;23.350;2024-03-08T01:01:49;93336.84;;;3.01;95.56
6899;BME280;3488;42.616;23.350;2024-03-08T01:04:14;93350.16;;;3.08;95.07
6899;BME280;3488;42.616;23.350;2024-03-08T01:06:40;93341.72;;;3.12;95.25
6899;BME280;3488;42.616;23.350;2024-03-08T01:09:05;93344.56;;;3.16;95.29
6899;BME280;3488;42.616;23.350;2024-03-08T01:11:33;93341.19;;;3.05;95.68
6899;BME280;3488;42.616;23.350;2024-03-08T01:13:59;93323.75;;;2.97;95.12
6899;BME280;3488;42.616;23.350;2024-03-08T01:16:24;93328.06;;;2.92;94.46
6899;BME280;3488;42.616;23.350;2024-03-08T01:18:50;93335.25;;;2.95;95.39
6899;BME280;3488;42.616;23.350;2024-03-08T01:21:15;93336.03;;;2.95;96.02
6899;BME280;3488;42.616;23.350;2024-03-08T01:23:41;93331.44;;;3.02;95.85
6899;BME280;3488;42.616;23.350;2024-03-08T01:26:07;93330.63;;;2.87;95.89
6899;BME280;3488;42.616;23.350;2024-03-08T01:28:33;93332.91;;;2.83;96.19
6899;BME280;3488;42.616;23.350;2024-03-08T01:31:00;93326.75;;;2.84;96.62
6899;BME280;3488;42.616;23.350;2024-03-08T01:33:26;93324.66;;;2.71;96.93
6899;BME280;3488;42.616;23.350;2024-03-08T01:35:55;93329.56;;;2.83;96.50
6899;BME280;3488;42.616;23.350;2024-03-08T01:38:22;93324.94;;;2.80;95.79
6899;BME280;3488;42.616;23.350;2024-03-08T01:40:50;93323.16;;;2.80;96.63
6899;BME280;3488;42.616;23.350;2024-03-08T01:43:25;93333.66;;;2.74;96.20
6899;BME280;3488;42.616;23.350;2024-03-08T01:45:56;93323.16;;;2.75;96.78
6899;BME280;3488;42.616;23.350;2024-03-08T01:48:24;93329.81;;;2.76;95.96
6899;BME280;3488;42.616;23.350;2024-03-08T01:50:50;93326.19;;;2.67;95.56
6899;BME280;3488;42.616;23.350;2024-03-08T01:53:18;93329.75;;;2.66;95.59
6899;BME280;3488;42.616;23.350;2024-03-08T01:55:48;93319.22;;;2.58;95.54
6899;BME280;3488;42.616;23.350;2024-03-08T01:58:14;93317.41;;;2.48;95.75
6899;BME280;3488;42.616;23.350;2024-03-08T02:00:44;93320.25;;;2.57;95.93
6899;BME280;3488;42.616;23.350;2024-03-08T02:03:11;93324.69;;;2.76;95.65
6899;BME280;3488;42.616;23.350;2024-03-08T02:05:40;93324.44;;;2.78;95.23
6899;BME280;3488;42.616;23.350;2024-03-08T02:08:06;93317.81;;;2.87;95.92
6899;BME280;3488;42.616;23.350;2024-03-08T02:10:36;93312.72;;;2.97;95.63
6899;BME280;3488;42.616;23.350;2024-03-08T02:13:02;93326.53;;;2.96;94.92
6899;BME280;3488;42.616;23.350;2024-03-08T02:16:04;93324.06;;;3.11;94.24
6899;BME280;3488;42.616;23.350;2024-03-08T02:18:33;93322.34;;;2.70;94.91
6899;BME280;3488;42.616;23.350;2024-03-08T02:21:00;93326.41;;;2.61;95.73
6899;BME280;3488;42.616;23.350;2024-03-08T02:23:26;93324.13;;;2.64;94.92
6899;BME280;3488;42.616;23.350;2024-03-08T02:25:53;93323.63;;;2.62;94.75
6899;BME280;3488;42.616;23.350;2024-03-08T02:28:19;93334.09;;;2.61;94.68
6899;BME280;3488;42.616;23.350;2024-03-08T02:30:48;93326.41;;;2.61;95.74
6899;BME280;3488;42.616;23.350;2024-03-08T02:33:15;93330.31;;;2.73;94.72
6899;BME280;3488;42.616;23.350;2024-03-08T02:35:44;93335.88;;;2.60;94.38
6899;BME280;3488;42.616;23.350;2024-03-08T02:38:11;93331.53;;;2.66;94.83
6899;BME280;3488;42.616;23.350;2024-03-08T02:40:37;93326.47;;;2.76;94.11
6899;BME280;3488;42.616;23.350;2024-03-08T02:43:03;93329.09;;;2.91;94.74
6899;BME280;3488;42.616;23.350;2024-03-08T02:45:30;93332.97;;;3.03;93.64
6899;BME280;3488;42.616;23.350;2024-03-08T02:47:56;93320.97;;;3.09;94.63
6899;BME280;3488;42.616;23.350;2024-03-08T02:50:21;93337.31;;;3.03;92.46
6899;BME280;3488;42.616;23.350;2024-03-08T02:52:48;93341.47;;;3.09;92.62
6899;BME280;3488;42.616;23.350;2024-03-08T02:55:13;93343.22;;;2.98;92.11
6899;BME280;3488;42.616;23.350;2024-03-08T02:57:42;93339.09;;;2.87;93.68
6899;BME280;3488;42.616;23.350;2024-03-08T03:00:09;93338.56;;;2.85;93.55
6899;BME280;3488;42.616;23.350;2024-03-08T03:02:36;93347.72;;;2.76;93.99
6899;BME280;3488;42.616;23.350;2024-03-08T03:05:01;93344.66;;;2.79;93.29
6899;BME280;3488;42.616;23.350;2024-03-08T03:07:35;93339.50;;;2.69;94.02
6899;BME280;3488;42.616;23.350;2024-03-08T03:10:00;93346.94;;;2.76;94.38
6899;BME280;3488;42.616;23.350;2024-03-08T03:12:31;93338.25;;;2.72;93.27
6899;BME280;3488;42.616;23.350;2024-03-08T03:14:57;93346.22;;;2.80;93.38
6899;BME280;3488;42.616;23.350;2024-03-08T03:17:26;93347.25;;;2.84;93.39
6899;BME280;3488;42.616;23.350;2024-03-08T03:19:52;93343.16;;;2.83;91.04
6899;BME280;3488;42.616;23.350;2024-03-08T03:22:19;93340.06;;;2.81;91.60
6899;BME280;3488;42.616;23.350;2024-03-08T03:24:47;93343.44;;;2.92;92.00
6899;BME280;3488;42.616;23.350;2024-03-08T03:27:13;93352.44;;;2.99;91.88
6899;BME280;3488;42.616;23.350;2024-03-08T03:29:41;93357.81;;;3.03;91.59
6899;BME280;3488;42.616;23.350;2024-03-08T03:32:14;93358.34;;;3.05;92.35
6899;BME280;3488;42.616;23.350;2024-03-08T03:34:40;93354.81;;;3.11;91.22
6899;BME280;3488;42.616;23.350;2024-03-08T03:37:06;93362.72;;;3.14;90.90
6899;BME280;3488;42.616;23.350;2024-03-08T03:39:34;93353.72;;;2.97;90.49
6899;BME280;3488;42.616;23.350;2024-03-08T03:42:03;93362.50;;;3.11;91.23
6899;BME280;3488;42.616;23.350;2024-03-08T03:44:28;93368.38;;;3.11;91.10
6899;BME280;3488;42.616;23.350;2024-03-08T03:46:54;93354.91;;;2.79;87.99
6899;BME280;3488;42.616;23.350;2024-03-08T03:49:20;93370.53;;;2.78;88.81
6899;BME280;3488;42.616;23.350;2024-03-08T03:51:46;93367.19;;;2.72;87.72
6899;BME280;3488;42.616;23.350;2024-03-08T03:54:12;93368.19;;;2.71;88.92
6899;BME280;3488;42.616;23.350;2024-03-08T03:56:38;93372.25;;;2.62;87.47
6899;BME280;3488;42.616;23.350;2024-03-08T03:59:05;93366.13;;;2.63;88.66
6899;BME280;3488;42.616;23.350;2024-03-08T04:01:32;93373.03;;;2.68;88.12
6899;BME280;3488;42.616;23.350;2024-03-08T04:03:58;93373.31;;;2.71;88.96
6899;BME280;3488;42.616;23.350;2024-03-08T04:06:23;93356.13;;;2.62;88.30
6899;BME280;3488;42.616;23.350;2024-03-08T04:08:50;93381.00;;;2.71;87.82
6899;BME280;3488;42.616;23.350;2024-03-08T04:11:16;93377.91;;;2.69;87.84
6899;BME280;3488;42.616;23.350;2024-03-08T04:13:43;93376.28;;;2.48;86.23
6899;BME280;3488;42.616;23.350;2024-03-08T04:16:08;93391.53;;;2.33;87.13
6899;BME280;3488;42.616;23.350;2024-03-08T04:18:36;93390.47;;;2.29;88.67
6899;BME280;3488;42.616;23.350;2024-03-08T04:21:05;93386.41;;;2.33;89.14
6899;BME280;3488;42.616;23.350;2024-03-08T04:23:34;93393.94;;;2.49;89.20
6899;BME280;3488;42.616;23.350;2024-03-08T04:26:03;93390.56;;;2.44;88.56
6899;BME280;3488;42.616;23.350;2024-03-08T04:28:29;93402.81;;;2.37;88.52
6899;BME280;3488;42.616;23.350;2024-03-08T04:30:55;93398.50;;;2.42;88.27
6899;BME280;3488;42.616;23.350;2024-03-08T04:33:21;93399.53;;;2.41;87.77
6899;BME280;3488;42.616;23.350;2024-03-08T04:35:48;93411.00;;;2.39;88.18
6899;BME280;3488;42.616;23.350;2024-03-08T04:38:14;93413.03;;;2.37;87.82
6899;BME280;3488;42.616;23.350;2024-03-08T04:40:41;93405.22;;;2.48;88.37
6899;BME280;3488;42.616;23.350;2024-03-08T04:43:06;93405.25;;;2.53;89.01
6899;BME280;3488;42.616;23.350;2024-03-08T04:45:33;93411.13;;;2.54;88.15
6899;BME280;3488;42.616;23.350;2024-03-08T04:47:59;93406.03;;;2.59;88.77
6899;BME280;3488;42.616;23.350;2024-03-08T04:50:24;93412.22;;;2.63;88.43
6899;BME280;3488;42.616;23.350;2024-03-08T04:52:50;93419.91;;;2.68;87.06
6899;BME280;3488;42.616;23.350;2024-03-08T04:55:15;93410.94;;;2.66;87.04
6899;BME280;3488;42.616;23.350;2024-03-08T04:57:41;93413.94;;;2.52;86.93
6899;BME280;3488;42.616;23.350;2024-03-08T05:00:10;93423.88;;;2.49;86.75
6899;BME280;3488;42.616;23.350;2024-03-08T05:02:37;93423.28;;;2.37;87.18
6899;BME280;3488;42.616;23.350;2024-03-08T05:05:05;93422.38;;;2.16;86.65
6899;BME280;3488;42.616;23.350;2024-03-08T05:07:31;93433.16;;;2.18;86.34
6899;BME280;3488;42.616;23.350;2024-03-08T05:09:58;93428.22;;;2.12;87.84
6899;BME280;3488;42.616;23.350;2024-03-08T05:12:24;93431.59;;;2.17;86.51
6899;BME280;3488;42.616;23.350;2024-03-08T05:14:49;93432.88;;;2.15;87.03
6899;BME280;3488;42.616;23.350;2024-03-08T05:17:16;93427.25;;;2.18;88.44
6899;BME280;3488;42.616;23.350;2024-03-08T05:19:42;93421.41;;;2.22;89.04
6899;BME280;3488;42.616;23.350;2024-03-08T05:22:08;93431.50;;;2.39;87.02
6899;BME280;3488;42.616;23.350;2024-03-08T05:24:33;93432.19;;;2.29;85.65
6899;BME280;3488;42.616;23.350;2024-03-08T05:26:59;93435.63;;;2.40;86.26
6899;BME280;3488;42.616;23.350;2024-03-08T05:29:26;93446.88;;;2.44;85.78
6899;BME280;3488;42.616;23.350;2024-03-08T05:31:52;93449.19;;;2.45;86.03
6899;BME280;3488;42.616;23.350;2024-03-08T05:34:18;93457.44;;;2.52;85.36
6899;BME280;3488;42.616;23.350;2024-03-08T05:36:45;93461.13;;;2.67;86.58
6899;BME280;3488;42.616;23.350;2024-03-08T05:39:15;93455.56;;;2.75;87.52
6899;BME280;3488;42.616;23.350;2024-03-08T05:41:43;93467.56;;;2.74;85.87
6899;BME280;3488;42.616;23.350;2024-03-08T05:44:10;93467.78;;;2.68;83.62
6899;BME280;3488;42.616;23.350;2024-03-08T05:46:36;93471.38;;;2.67;83.03
6899;BME280;3488;42.616;23.350;2024-03-08T05:49:06;93474.91;;;2.61;83.54
6899;BME280;3488;42.616;23.350;2024-03-08T05:51:36;93472.16;;;2.67;85.27
6899;BME280;3488;42.616;23.350;2024-03-08T05:54:03;93474.72;;;2.67;84.63
6899;BME280;3488;42.616;23.350;2024-03-08T05:56:33;93478.78;;;2.63;85.10
6899;BME280;3488;42.616;23.350;2024-03-08T05:58:58;93481.03;;;2.54;84.31
6899;BME280;3488;42.616;23.350;2024-03-08T06:01:25;93485.63;;;2.52;85.34
6899;BME280;3488;42.616;23.350;2024-03-08T06:03:52;93485.63;;;2.52;85.35
6899;BME280;3488;42.616;23.350;2024-03-08T06:06:20;93500.19;;;2.52;86.65
6899;BME280;3488;42.616;23.350;2024-03-08T06:08:47;93494.81;;;2.48;88.70
6899;BME280;3488;42.616;23.350;2024-03-08T06:11:14;93499.75;;;2.60;89.21
6899;BME280;3488;42.616;23.350;2024-03-08T06:13:40;93499.06;;;2.70;88.20
6899;BME280;3488;42.616;23.350;2024-03-08T06:16:05;93507.63;;;2.85;88.42
6899;BME280;3488;42.616;23.350;2024-03-08T06:18:34;93503.81;;;2.93;88.27
6899;BME280;3488;42.616;23.350;2024-03-08T06:21:02;93499.00;;;3.01;88.44
6899;BME280;3488;42.616;23.350;2024-03-08T06:23:27;93518.09;;;2.79;87.13
6899;BME280;3488;42.616;23.350;2024-03-08T06:25:53;93518.91;;;2.89;88.52
6899;BME280;3488;42.616;23.350;2024-03-08T06:28:19;93511.31;;;3.04;88.11
6899;BME280;3488;42.616;23.350;2024-03-08T06:30:45;93510.78;;;2.97;86.23
6899;BME280;3488;42.616;23.350;2024-03-08T06:33:10;93513.38;;;3.02;88.11
6899;BME280;3488;42.616;23.350;2024-03-08T06:35:36;93517.41;;;2.93;85.78
6899;BME280;3488;42.616;23.350;2024-03-08T06:38:04;93525.56;;;2.85;85.98
6899;BME280;3488;42.616;23.350;2024-03-08T06:40:29;93516.06;;;2.86;88.62
6899;BME280;3488;42.616;23.350;2024-03-08T06:42:55;93519.81;;;3.10;87.99
6899;BME280;3488;42.616;23.350;2024-03-08T06:45:20;93524.91;;;3.51;92.96
6899;BME280;3488;42.616;23.350;2024-03-08T06:47:47;93530.44;;;3.28;87.36
6899;BME280;3488;42.616;23.350;2024-03-08T06:50:13;93527.59;;;3.25;86.12
6899;BME280;3488;42.616;23.350;2024-03-08T06:52:40;93525.69;;;3.05;86.35
6899;BME280;3488;42.616;23.350;2024-03-08T06:55:08;93528.66;;;2.87;87.46
6899;BME280;3488;42.616;23.350;2024-03-08T06:57:40;93534.88;;;2.65;88.41
6899;BME280;3488;42.616;23.350;2024-03-08T07:00:07;93530.59;;;2.75;87.86
6899;BME280;3488;42.616;23.350;2024-03-08T07:02:35;93534.56;;;2.93;87.28
6899;BME280;3488;42.616;23.350;2024-03-08T07:05:01;93538.81;;;2.77;87.29
6899;BME280;3488;42.616;23.350;2024-03-08T07:07:27;93535.81;;;2.85;85.29
6899;BME280;3488;42.616;23.350;2024-03-08T07:09:52;93538.69;;;2.94;86.30
6899;BME280;3488;42.616;23.350;2024-03-08T07:12:18;93525.94;;;3.04;85.54
6899;BME280;3488;42.616;23.350;2024-03-08T07:14:46;93530.41;;;2.82;87.16
6899;BME280;3488;42.616;23.350;2024-03-08T07:17:12;93535.47;;;3.13;85.93
6899;BME280;3488;42.616;23.350;2024-03-08T07:19:38;93534.56;;;3.34;85.18
6899;BME280;3488;42.616;23.350;2024-03-08T07:22:04;93535.38;;;3.45;83.93
6899;BME280;3488;42.616;23.350;2024-03-08T07:24:30;93531.41;;;3.74;84.92
6899;BME280;3488;42.616;23.350;2024-03-08T07:27:25;93537.66;;;3.98;83.27
6899;BME280;3488;42.616;23.350;2024-03-08T07:29:51;93539.19;;;3.94;86.99
6899;BME280;3488;42.616;23.350;2024-03-08T07:32:17;93544.06;;;4.01;85.04
6899;BME280;3488;42.616;23.350;2024-03-08T07:34:50;93534.53;;;3.86;83.96
6899;BME280;3488;42.616;23.350;2024-03-08T07:37:17;93534.13;;;3.47;84.02
6899;BME280;3488;42.616;23.350;2024-03-08T07:39:43;93547.03;;;3.67;82.48
6899;BME280;3488;42.616;23.350;2024-03-08T07:42:09;93538.28;;;3.63;83.55
6899;BME280;3488;42.616;23.350;2024-03-08T07:44:36;93545.53;;;3.81;83.74
6899;BME280;3488;42.616;23.350;2024-03-08T07:47:01;93547.41;;;3.96;83.06
6899;BME280;3488;42.616;23.350;2024-03-08T07:49:27;93545.13;;;4.05;81.10
6899;BME280;3488;42.616;23.350;2024-03-08T07:51:52;93552.22;;;3.77;81.88
6899;BME280;3488;42.616;23.350;2024-03-08T07:54:18;93548.91;;;3.30;82.50
6899;BME280;3488;42.616;23.350;2024-03-08T07:56:43;93545.97;;;3.58;83.57
6899;BME280;3488;42.616;23.350;2024-03-08T07:59:09;93553.56;;;4.00;83.28
6899;BME280;3488;42.616;23.350;2024-03-08T08:01:37;93541.00;;;3.42;82.23
6899;BME280;3488;42.616;23.350;2024-03-08T08:04:03;93547.00;;;3.62;82.32
6899;BME280;3488;42.616;23.350;2024-03-08T08:06:28;93551.34;;;3.57;81.40
6899;BME280;3488;42.616;23.350;2024-03-08T08:08:57;93553.84;;;3.47;79.85
6899;BME280;3488;42.616;23.350;2024-03-08T08:11:22;93548.03;;;3.61;79.00
6899;BME280;3488;42.616;23.350;2024-03-08T08:13:48;93558.91;;;3.83;81.04
6899;BME280;3488;42.616;23.350;2024-03-08T08:16:13;93547.59;;;3.79;79.22
6899;BME280;3488;42.616;23.350;2024-03-08T08:18:39;93552.41;;;3.61;79.09
6899;BME280;3488;42.616;23.350;2024-03-08T08:21:06;93552.44;;;3.71;78.01
6899;BME280;3488;42.616;23.350;2024-03-08T08:23:34;93538.47;;;4.24;80.04
6899;BME280;3488;42.616;23.350;2024-03-08T08:25:59;93548.00;;;4.28;78.67
6899;BME280;3488;42.616;23.350;2024-03-08T08:28:26;93550.38;;;4.75;77.89
6899;BME280;3488;42.616;23.350;2024-03-08T08:30:52;93547.78;;;5.10;72.94
6899;BME280;3488;42.616;23.350;2024-03-08T08:33:17;93542.63;;;5.20;75.02
6899;BME280;3488;42.616;23.350;2024-03-08T08:35:43;93560.63;;;4.60;72.06
6899;BME280;3488;42.616;23.350;2024-03-08T08:38:09;93557.78;;;4.46;73.42
6899;BME280;3488;42.616;23.350;2024-03-08T08:40:35;93542.13;;;4.98;75.94
6899;BME280;3488;42.616;23.350;2024-03-08T08:43:02;93544.38;;;5.35;74.69
6899;BME280;3488;42.616;23.350;2024-03-08T08:45:31;93535.91;;;5.44;70.81
6899;BME280;3488;42.616;23.350;2024-03-08T08:47:57;93533.06;;;5.46;74.68
6899;BME280;3488;42.616;23.350;2024-03-08T08:50:25;93533.59;;;6.16;71.16
6899;BME280;3488;42.616;23.350;2024-03-08T08:52:52;93530.91;;;6.75;68.92
6899;BME280;3488;42.616;23.350;2024-03-08T08:55:18;93527.84;;;7.02;66.47
6899;BME280;3488;42.616;23.350;2024-03-08T08:57:46;93533.47;;;6.75;66.64
6899;BME280;3488;42.616;23.350;2024-03-08T09:00:13;93530.66;;;7.05;66.78
6899;BME280;3488;42.616;23.350;2024-03-08T09:02:41;93525.84;;;7.46;68.97
6899;BME280;3488;42.616;23.350;2024-03-08T09:05:08;93530.28;;;7.69;66.26
6899;BME280;3488;42.616;23.350;2024-03-08T09:07:33;93531.69;;;7.80;64.75
6899;BME280;3488;42.616;23.350;2024-03-08T09:10:00;93531.06;;;6.50;66.28
6899;BME280;3488;42.616;23.350;2024-03-08T09:12:26;93529.34;;;5.87;73.43
6899;BME280;3488;42.616;23.350;2024-03-08T09:14:52;93546.56;;;5.81;72.29
6899;BME280;3488;42.616;23.350;2024-03-08T09:17:18;93537.22;;;5.22;73.93
6899;BME280;3488;42.616;23.350;2024-03-08T09:19:46;93544.91;;;5.32;73.70
6899;BME280;3488;42.616;23.350;2024-03-08T09:22:13;93545.38;;;5.59;72.65
6899;BME280;3488;42.616;23.350;2024-03-08T09:24:39;93541.50;;;5.56;73.04
6899;BME280;3488;42.616;23.350;2024-03-08T09:27:04;93540.88;;;5.99;72.37
6899;BME280;3488;42.616;23.350;2024-03-08T09:29:30;93536.53;;;5.80;71.03
6899;BME280;3488;42.616;23.350;2024-03-08T09:31:55;93531.69;;;5.68;71.76
6899;BME280;3488;42.616;23.350;2024-03-08T09:34:21;93535.78;;;5.84;69.47
6899;BME280;3488;42.616;23.350;2024-03-08T09:36:47;93542.03;;;5.48;71.66
6899;BME280;3488;42.616;23.350;2024-03-08T09:39:12;93542.38;;;4.96;71.15
6899;BME280;3488;42.616;23.350;2024-03-08T09:41:44;93527.91;;;5.46;70.99
6899;BME280;3488;42.616;23.350;2024-03-08T09:44:13;93529.63;;;5.70;70.68
6899;BME280;3488;42.616;23.350;2024-03-08T09:46:40;93541.31;;;6.16;72.55
6899;BME280;3488;42.616;23.350;2024-03-08T09:49:06;93529.31;;;6.79;66.29
6899;BME280;3488;42.616;23.350;2024-03-08T09:51:34;93532.06;;;6.88;66.31
6899;BME280;3488;42.616;23.350;2024-03-08T09:54:03;93528.25;;;6.85;67.32
6899;BME280;3488;42.616;23.350;2024-03-08T09:56:32;93531.00;;;7.22;63.99
6899;BME280;3488;42.616;23.350;2024-03-08T09:59:01;93531.97;;;7.55;64.81
6899;BME280;3488;42.616;23.350;2024-03-08T10:01:54;93533.84;;;7.73;60.49
6899;BME280;3488;42.616;23.350;2024-03-08T10:04:22;93530.72;;;7.76;61.31
6899;BME280;3488;42.616;23.350;2024-03-08T10:06:48;93537.44;;;6.58;62.26
6899;BME280;3488;42.616;23.350;2024-03-08T10:09:14;93538.88;;;7.36;63.56
6899;BME280;3488;42.616;23.350;2024-03-08T10:11:41;93524.72;;;7.05;58.86
6899;BME280;3488;42.616;23.350;2024-03-08T10:14:08;93523.91;;;7.62;60.34
6899;BME280;3488;42.616;23.350;2024-03-08T10:16:34;93534.59;;;8.76;59.51
6899;BME280;3488;42.616;23.350;2024-03-08T10:19:00;93530.72;;;9.25;54.15
6899;BME280;3488;42.616;23.350;2024-03-08T10:21:26;93541.56;;;7.97;56.99
6899;BME280;3488;42.616;23.350;2024-03-08T10:23:52;93540.13;;;6.81;62.73
6899;BME280;3488;42.616;23.350;2024-03-08T10:26:18;93536.19;;;7.17;63.02
6899;BME280;3488;42.616;23.350;2024-03-08T10:28:47;93529.88;;;7.57;64.74
6899;BME280;3488;42.616;23.350;2024-03-08T10:31:14;93534.03;;;8.00;62.90
6899;BME280;3488;42.616;23.350;2024-03-08T10:33:40;93529.44;;;6.93;62.27
6899;BME280;3488;42.616;23.350;2024-03-08T10:36:10;93537.56;;;6.43;63.33
6899;BME280;3488;42.616;23.350;2024-03-08T10:38:39;93535.34;;;6.65;61.42
6899;BME280;3488;42.616;23.350;2024-03-08T10:41:09;93531.13;;;6.74;62.81
6899;BME280;3488;42.616;23.350;2024-03-08T10:46:27;93524.28;;;6.93;63.35
6899;BME280;3488;42.616;23.350;2024-03-08T10:48:57;93521.03;;;7.11;59.91
6899;BME280;3488;42.616;23.350;2024-03-08T10:51:30;93522.69;;;7.02;60.88
6899;BME280;3488;42.616;23.350;2024-03-08T10:53:57;93522.84;;;6.82;62.22
6899;BME280;3488;42.616;23.350;2024-03-08T10:56:23;93529.28;;;7.41;63.18
6899;BME280;3488;42.616;23.350;2024-03-08T10:58:49;93516.38;;;7.13;61.07
6899;BME280;3488;42.616;23.350;2024-03-08T11:01:15;93511.13;;;6.94;62.85
6899;BME280;3488;42.616;23.350;2024-03-08T11:06:16;93515.03;;;6.58;60.98
6899;BME280;3488;42.616;23.350;2024-03-08T11:08:42;93501.59;;;7.23;60.36
6899;BME280;3488;42.616;23.350;2024-03-08T11:11:28;93503.06;;;7.53;58.82
6899;BME280;3488;42.616;23.350;2024-03-08T11:13:56;93494.84;;;7.51;60.70
6899;BME280;3488;42.616;23.350;2024-03-08T11:18:58;93489.88;;;7.31;59.51
6899;BME280;3488;42.616;23.350;2024-03-08T11:21:30;93499.06;;;7.89;58.92
6899;BME280;3488;42.616;23.350;2024-03-08T11:24:06;93486.31;;;8.16;57.50
6899;BME280;3488;42.616;23.350;2024-03-08T11:26:33;93491.09;;;8.46;56.85
6899;BME280;3488;42.616;23.350;2024-03-08T11:32:15;93488.53;;;8.78;54.49
6899;BME280;3488;42.616;23.350;2024-03-08T11:34:46;93486.31;;;8.86;54.20
6899;BME280;3488;42.616;23.350;2024-03-08T11:37:21;93480.53;;;8.94;55.68
6899;BME280;3488;42.616;23.350;2024-03-08T11:42:17;93475.22;;;9.17;53.21
6899;BME280;3488;42.616;23.350;2024-03-08T11:44:44;93486.78;;;8.00;52.90
6899;BME280;3488;42.616;23.350;2024-03-08T11:47:10;93472.88;;;7.96;56.47
6899;BME280;3488;42.616;23.350;2024-03-08T11:49:37;93469.25;;;7.54;58.06
6899;BME280;3488;42.616;23.350;2024-03-08T11:52:03;93482.19;;;7.26;58.15
6899;BME280;3488;42.616;23.350;2024-03-08T11:54:29;93485.84;;;7.72;58.41
6899;BME280;3488;42.616;23.350;2024-03-08T11:56:56;93478.47;;;7.84;57.55
6899;BME280;3488;42.616;23.350;2024-03-08T11:59:27;93472.94;;;8.33;57.92
6899;BME280;3488;42.616;23.350;2024-03-08T12:02:04;93485.06;;;7.72;57.00
6899;BME280;3488;42.616;23.350;2024-03-08T12:04:31;93476.28;;;7.25;58.21
6899;BME280;3488;42.616;23.350;2024-03-08T12:06:59;93479.22;;;6.57;59.55
6899;BME280;3488;42.616;23.350;2024-03-08T12:09:31;93475.38;;;6.54;61.04
6899;BME280;3488;42.616;23.350;2024-03-08T12:11:58;93480.81;;;6.48;62.13
6899;BME280;3488;42.616;23.350;2024-03-08T12:14:24;93476.03;;;6.98;61.21
6899;BME280;3488;42.616;23.350;2024-03-08T12:16:51;93474.50;;;7.21;59.71
6899;BME280;3488;42.616;23.350;2024-03-08T12:19:17;93478.22;;;7.62;58.61
6899;BME280;3488;42.616;23.350;2024-03-08T12:21:43;93481.31;;;7.83;57.83
6899;BME280;3488;42.616;23.350;2024-03-08T12:24:15;93469.16;;;7.83;58.18
6899;BME280;3488;42.616;23.350;2024-03-08T12:26:42;93464.16;;;8.10;58.56
6899;BME280;3488;42.616;23.350;2024-03-08T12:29:25;93475.00;;;8.49;55.08
6899;BME280;3488;42.616;23.350;2024-03-08T12:31:57;93474.50;;;8.10;53.50
6899;BME280;3488;42.616;23.350;2024-03-08T12:34:24;93467.13;;;8.41;55.34
6899;BME280;3488;42.616;23.350;2024-03-08T12:36:51;93464.69;;;8.31;54.49
6899;BME280;3488;42.616;23.350;2024-03-08T12:39:21;93459.75;;;8.66;54.18
6899;BME280;3488;42.616;23.350;2024-03-08T12:41:53;93454.88;;;9.11;53.41
6899;BME280;3488;42.616;23.350;2024-03-08T12:44:20;93453.28;;;9.42;53.03
6899;BME280;3488;42.616;23.350;2024-03-08T12:46:50;93449.53;;;8.75;53.28
6899;BME280;3488;42.616;23.350;2024-03-08T12:49:17;93437.69;;;8.55;53.17
6899;BME280;3488;42.616;23.350;2024-03-08T12:51:44;93449.78;;;8.04;55.22
6899;BME280;3488;42.616;23.350;2024-03-08T12:54:10;93444.28;;;8.29;56.00
6899;BME280;3488;42.616;23.350;2024-03-08T12:56:35;93449.44;;;7.50;57.04
6899;BME280;3488;42.616;23.350;2024-03-08T12:59:03;93453.50;;;7.09;57.78
6899;BME280;3488;42.616;23.350;2024-03-08T13:01:30;93443.88;;;7.14;58.24
6899;BME280;3488;42.616;23.350;2024-03-08T13:04:00;93451.22;;;6.74;59.87
6899;BME280;3488;42.616;23.350;2024-03-08T13:06:28;93450.63;;;6.87;60.75
6899;BME280;3488;42.616;23.350;2024-03-08T13:08:56;93454.72;;;6.88;58.60
6899;BME280;3488;42.616;23.350;2024-03-08T13:11:24;93442.25;;;6.71;59.09
6899;BME280;3488;42.616;23.350;2024-03-08T13:13:52;93454.91;;;6.96;58.66
6899;BME280;3488;42.616;23.350;2024-03-08T13:16:20;93448.25;;;6.62;59.61
6899;BME280;3488;42.616;23.350;2024-03-08T13:18:46;93444.03;;;6.99;60.11
6899;BME280;3488;42.616;23.350;2024-03-08T13:21:15;93455.53;;;7.35;59.12
6899;BME280;3488;42.616;23.350;2024-03-08T13:23:43;93450.25;;;7.69;55.97
6899;BME280;3488;42.616;23.350;2024-03-08T13:26:14;93442.91;;;7.95;57.59
6899;BME280;3488;42.616;23.350;2024-03-08T13:28:45;93449.59;;;7.58;57.50
6899;BME280;3488;42.616;23.350;2024-03-08T13:31:11;93450.81;;;7.85;56.07
6899;BME280;3488;42.616;23.350;2024-03-08T13:33:37;93448.53;;;7.59;55.33
6899;BME280;3488;42.616;23.350;2024-03-08T13:36:10;93453.75;;;7.31;56.80